createdAt,value
2019-02-06T00:00:48.414Z,987.15
2019-02-06T00:01:48.400Z,987.12
2019-02-06T00:02:48.391Z,987.18
2019-02-06T00:03:48.378Z,987.14
2019-02-06T00:04:48.365Z,987.16
2019-02-06T00:05:48.357Z,987.13
2019-02-06T00:06:48.344Z,987.17
2019-02-06T00:07:48.333Z,987.18
2019-02-06T00:08:48.326Z,987.17
2019-02-06T00:09:48.308Z,987.11
2019-02-06T00:10:48.311Z,987.18
2019-02-06T00:11:48.293Z,987.16
2019-02-06T00:12:48.277Z,987.19
2019-02-06T00:13:48.267Z,987.21
2019-02-06T00:14:48.257Z,987.14
2019-02-06T00:15:48.254Z,987.07
2019-02-06T00:16:48.252Z,987.09
2019-02-06T00:17:48.256Z,987.14
2019-02-06T00:18:48.238Z,987.07
2019-02-06T00:19:48.199Z,987.08
2019-02-06T00:20:48.226Z,987.05
2019-02-06T00:21:48.179Z,987.03
2019-02-06T00:22:48.165Z,986.99
2019-02-06T00:23:48.158Z,987.03
2019-02-06T00:24:48.144Z,987.03
2019-02-06T00:25:48.189Z,987.02
2019-02-06T00:26:48.122Z,987.10
2019-02-06T00:27:48.109Z,987.06
2019-02-06T00:28:48.103Z,987.04
2019-02-06T00:29:48.089Z,987.03
2019-02-06T00:30:48.077Z,987.03
2019-02-06T00:31:48.074Z,987.06
2019-02-06T00:32:48.064Z,987.10
2019-02-06T00:33:48.043Z,986.99
2019-02-06T00:34:48.033Z,986.96
2019-02-06T00:35:48.020Z,987.01
2019-02-06T00:36:48.019Z,987.03
2019-02-06T00:37:48.007Z,987.03
2019-02-06T00:38:47.990Z,987.09
2019-02-06T00:39:47.976Z,987.02
2019-02-06T00:40:47.969Z,987.02
2019-02-06T00:41:48.074Z,986.95
2019-02-06T00:42:47.943Z,986.99
2019-02-06T00:43:47.936Z,986.97
2019-02-06T00:44:47.921Z,987.02
2019-02-06T00:45:47.913Z,987.02
2019-02-06T00:46:47.912Z,987.02
2019-02-06T00:47:47.889Z,987.03
2019-02-06T00:48:47.879Z,987.02
2019-02-06T00:49:47.865Z,987.00
2019-02-06T00:50:47.856Z,987.00
2019-02-06T00:51:47.853Z,987.02
2019-02-06T00:52:47.834Z,987.04
2019-02-06T00:53:47.826Z,987.04
2019-02-06T00:54:47.812Z,987.06
2019-02-06T00:55:47.801Z,987.09
2019-02-06T00:56:47.797Z,987.06
2019-02-06T00:57:47.778Z,987.12
2019-02-06T00:58:47.766Z,987.03
2019-02-06T00:59:47.757Z,987.00
2019-02-06T01:00:47.745Z,987.03
2019-02-06T01:01:48.238Z,987.01
2019-02-06T01:02:47.721Z,987.01
2019-02-06T01:03:47.710Z,986.98
2019-02-06T01:04:47.699Z,987.00
2019-02-06T01:05:47.690Z,987.07
2019-02-06T01:06:47.690Z,987.05
2019-02-06T01:07:47.677Z,987.07
2019-02-06T01:08:47.661Z,987.04
2019-02-06T01:09:47.645Z,987.02
2019-02-06T01:10:47.634Z,986.99
2019-02-06T01:11:47.631Z,987.01
2019-02-06T01:12:47.613Z,987.00
2019-02-06T01:13:47.601Z,987.01
2019-02-06T01:14:47.590Z,986.98
2019-02-06T01:15:47.578Z,987.00
2019-02-06T01:16:47.614Z,986.96
2019-02-06T01:17:47.557Z,986.98
2019-02-06T01:18:47.547Z,986.97
2019-02-06T01:19:47.537Z,986.98
2019-02-06T01:20:47.526Z,986.99
2019-02-06T01:21:47.512Z,987.01
2019-02-06T01:22:47.502Z,987.01
2019-02-06T01:23:47.489Z,987.02
2019-02-06T01:24:47.478Z,987.03
2019-02-06T01:25:47.467Z,986.99
2019-02-06T01:26:47.455Z,987.02
2019-02-06T01:27:47.447Z,987.04
2019-02-06T01:28:47.479Z,987.00
2019-02-06T01:29:47.422Z,987.03
2019-02-06T01:30:47.412Z,987.01
2019-02-06T01:31:47.401Z,987.04
2019-02-06T01:32:47.396Z,987.01
2019-02-06T01:33:47.381Z,986.98
2019-02-06T01:34:47.369Z,987.00
2019-02-06T01:35:50.028Z,986.93
2019-02-06T01:36:47.347Z,986.98
2019-02-06T01:37:47.367Z,986.93
2019-02-06T01:38:47.342Z,986.95
2019-02-06T01:39:47.319Z,986.92
2019-02-06T01:40:47.302Z,986.91
2019-02-06T01:41:47.292Z,986.92
2019-02-06T01:42:47.280Z,986.90
2019-02-06T01:43:47.282Z,986.95
2019-02-06T01:44:47.258Z,986.97
2019-02-06T01:45:47.246Z,986.96
2019-02-06T01:46:47.236Z,986.94
2019-02-06T01:47:47.231Z,986.88
2019-02-06T01:48:47.361Z,986.88
2019-02-06T01:49:47.203Z,986.96
2019-02-06T01:50:47.190Z,986.93
2019-02-06T01:51:47.180Z,986.91
2019-02-06T01:52:47.170Z,986.87
2019-02-06T01:53:47.170Z,986.89
2019-02-06T01:54:47.145Z,986.87
2019-02-06T01:55:47.135Z,986.92
2019-02-06T01:56:47.123Z,986.89
2019-02-06T01:57:47.112Z,986.86
2019-02-06T01:58:47.110Z,986.85
2019-02-06T01:59:47.093Z,986.81
2019-02-06T02:00:47.095Z,986.83
2019-02-06T02:01:47.068Z,986.78
2019-02-06T02:02:47.056Z,986.78
2019-02-06T02:03:47.059Z,986.80
2019-02-06T02:04:47.036Z,986.74
2019-02-06T02:05:47.025Z,986.83
2019-02-06T02:06:47.015Z,986.77
2019-02-06T02:07:47.004Z,986.82
2019-02-06T02:08:47.009Z,986.81
2019-02-06T02:09:46.980Z,986.81
2019-02-06T02:10:46.973Z,986.71
2019-02-06T02:11:46.958Z,986.72
2019-02-06T02:12:46.948Z,986.71
2019-02-06T02:13:46.947Z,986.70
2019-02-06T02:14:46.925Z,986.70
2019-02-06T02:15:46.915Z,986.76
2019-02-06T02:16:46.906Z,986.73
2019-02-06T02:17:46.894Z,986.71
2019-02-06T02:18:46.895Z,986.68
2019-02-06T02:19:46.873Z,986.67
2019-02-06T02:20:46.860Z,986.68
2019-02-06T02:21:46.848Z,986.69
2019-02-06T02:22:46.837Z,986.70
2019-02-06T02:23:46.851Z,986.76
2019-02-06T02:24:46.816Z,986.76
2019-02-06T02:25:46.810Z,986.74
2019-02-06T02:26:46.792Z,986.68
2019-02-06T02:27:46.780Z,986.67
2019-02-06T02:28:46.772Z,986.71
2019-02-06T02:29:46.767Z,986.66
2019-02-06T02:30:46.749Z,986.63
2019-02-06T02:31:46.736Z,986.63
2019-02-06T02:32:46.728Z,986.63
2019-02-06T02:33:46.724Z,986.61
2019-02-06T02:34:46.713Z,986.60
2019-02-06T02:35:46.696Z,986.67
2019-02-06T02:36:46.679Z,986.61
2019-02-06T02:37:46.669Z,986.65
2019-02-06T02:38:46.665Z,986.53
2019-02-06T02:39:46.656Z,986.59
2019-02-06T02:40:46.637Z,986.53
2019-02-06T02:41:46.627Z,986.55
2019-02-06T02:42:46.614Z,986.54
2019-02-06T02:43:46.604Z,986.53
2019-02-06T02:44:46.602Z,986.58
2019-02-06T02:45:46.581Z,986.54
2019-02-06T02:46:46.601Z,986.56
2019-02-06T02:47:46.567Z,986.56
2019-02-06T02:48:46.551Z,986.50
2019-02-06T02:49:46.545Z,986.53
2019-02-06T02:50:46.523Z,986.49
2019-02-06T02:51:46.513Z,986.45
2019-02-06T02:52:46.510Z,986.43
2019-02-06T02:53:46.497Z,986.43
2019-02-06T02:54:46.490Z,986.44
2019-02-06T02:55:46.474Z,986.42
2019-02-06T02:56:46.456Z,986.43
2019-02-06T02:57:46.517Z,986.40
2019-02-06T02:58:46.435Z,986.51
2019-02-06T02:59:46.434Z,986.43
2019-02-06T03:00:46.413Z,986.44
2019-02-06T03:01:46.406Z,986.46
2019-02-06T03:02:46.391Z,986.43
2019-02-06T03:03:46.385Z,986.50
2019-02-06T03:04:46.378Z,986.45
2019-02-06T03:05:46.358Z,986.39
2019-02-06T03:06:46.354Z,986.36
2019-02-06T03:07:46.339Z,986.38
2019-02-06T03:08:46.327Z,986.38
2019-02-06T03:09:46.458Z,986.33
2019-02-06T03:10:46.302Z,986.40
2019-02-06T03:11:46.291Z,986.42
2019-02-06T03:12:46.281Z,986.35
2019-02-06T03:13:46.273Z,986.37
2019-02-06T03:14:46.257Z,986.40
2019-02-06T03:15:46.248Z,986.35
2019-02-06T03:16:46.239Z,986.41
2019-02-06T03:17:46.225Z,986.29
2019-02-06T03:18:46.226Z,986.34
2019-02-06T03:19:46.210Z,986.32
2019-02-06T03:20:46.191Z,986.33
2019-02-06T03:21:46.214Z,986.36
2019-02-06T03:22:46.167Z,986.35
2019-02-06T03:23:46.158Z,986.33
2019-02-06T03:24:46.149Z,986.36
2019-02-06T03:25:46.137Z,986.40
2019-02-06T03:26:46.133Z,986.42
2019-02-06T03:27:46.113Z,986.39
2019-02-06T03:28:46.166Z,986.45
2019-02-06T03:29:46.090Z,986.48
2019-02-06T03:30:46.090Z,986.43
2019-02-06T03:31:46.069Z,986.46
2019-02-06T03:32:46.061Z,986.47
2019-02-06T03:33:46.198Z,986.46
2019-02-06T03:34:46.036Z,986.49
2019-02-06T03:35:46.027Z,986.47
2019-02-06T03:36:46.011Z,986.50
2019-02-06T03:37:46.001Z,986.51
2019-02-06T03:38:45.992Z,986.46
2019-02-06T03:39:45.979Z,986.46
2019-02-06T03:40:45.975Z,986.50
2019-02-06T03:41:45.958Z,986.43
2019-02-06T03:42:45.945Z,986.47
2019-02-06T03:43:45.936Z,986.44
2019-02-06T03:44:45.924Z,986.38
2019-02-06T03:45:45.928Z,986.42
2019-02-06T03:46:45.899Z,986.38
2019-02-06T03:47:45.898Z,986.38
2019-02-06T03:48:45.881Z,986.42
2019-02-06T03:49:45.867Z,986.37
2019-02-06T03:50:45.857Z,986.36
2019-02-06T03:51:45.854Z,986.33
2019-02-06T03:52:45.836Z,986.31
2019-02-06T03:53:45.823Z,986.28
2019-02-06T03:54:45.812Z,986.32
2019-02-06T03:55:45.801Z,986.28
2019-02-06T03:56:45.798Z,986.24
2019-02-06T03:57:45.777Z,986.22
2019-02-06T03:58:45.769Z,986.22
2019-02-06T03:59:45.756Z,986.20
2019-02-06T04:00:45.744Z,986.22
2019-02-06T04:01:45.743Z,986.23
2019-02-06T04:02:45.722Z,986.22
2019-02-06T04:03:45.716Z,986.28
2019-02-06T04:04:45.701Z,986.23
2019-02-06T04:05:45.690Z,986.27
2019-02-06T04:06:55.151Z,986.21
2019-02-06T04:07:46.667Z,986.18
2019-02-06T04:08:45.657Z,986.17
2019-02-06T04:09:45.644Z,986.25
2019-02-06T04:10:45.634Z,986.22
2019-02-06T04:11:45.631Z,986.23
2019-02-06T04:12:45.621Z,986.23
2019-02-06T04:13:45.606Z,986.20
2019-02-06T04:14:45.588Z,986.24
2019-02-06T04:15:45.579Z,986.26
2019-02-06T04:16:45.577Z,986.29
2019-02-06T04:17:45.557Z,986.33
2019-02-06T04:18:45.549Z,986.33
2019-02-06T04:19:45.534Z,986.34
2019-02-06T04:20:45.526Z,986.35
2019-02-06T04:21:45.522Z,986.40
2019-02-06T04:22:45.510Z,986.37
2019-02-06T04:23:45.494Z,986.31
2019-02-06T04:24:45.480Z,986.38
2019-02-06T04:25:45.468Z,986.37
2019-02-06T04:26:45.466Z,986.39
2019-02-06T04:27:45.447Z,986.40
2019-02-06T04:28:45.436Z,986.35
2019-02-06T04:29:45.432Z,986.39
2019-02-06T04:30:45.413Z,986.42
2019-02-06T04:31:45.413Z,986.41
2019-02-06T04:32:45.391Z,986.44
2019-02-06T04:33:45.379Z,986.40
2019-02-06T04:34:45.370Z,986.43
2019-02-06T04:35:45.364Z,986.46
2019-02-06T04:36:45.348Z,986.45
2019-02-06T04:37:45.344Z,986.42
2019-02-06T04:38:45.328Z,986.39
2019-02-06T04:39:45.316Z,986.36
2019-02-06T04:40:45.304Z,986.45
2019-02-06T04:41:45.297Z,986.37
2019-02-06T04:42:45.288Z,986.37
2019-02-06T04:43:45.275Z,986.34
2019-02-06T04:44:45.264Z,986.35
2019-02-06T04:45:45.257Z,986.33
2019-02-06T04:46:45.362Z,986.30
2019-02-06T04:47:45.233Z,986.28
2019-02-06T04:48:45.218Z,986.30
2019-02-06T04:49:45.226Z,986.22
2019-02-06T04:50:45.197Z,986.22
2019-02-06T04:51:45.184Z,986.26
2019-02-06T04:52:45.184Z,986.24
2019-02-06T04:53:45.163Z,986.21
2019-02-06T04:54:45.156Z,986.21
2019-02-06T04:55:45.141Z,986.24
2019-02-06T04:56:45.133Z,986.20
2019-02-06T04:57:45.130Z,986.24
2019-02-06T04:58:45.108Z,986.21
2019-02-06T04:59:45.099Z,986.20
2019-02-06T05:00:45.096Z,986.15
2019-02-06T05:01:45.074Z,986.17
2019-02-06T05:02:45.356Z,986.26
2019-02-06T05:03:45.054Z,986.22
2019-02-06T05:04:45.050Z,986.19
2019-02-06T05:05:45.032Z,986.24
2019-02-06T05:06:45.024Z,986.19
2019-02-06T05:07:45.011Z,986.21
2019-02-06T05:08:45.010Z,986.20
2019-02-06T05:09:44.990Z,986.20
2019-02-06T05:10:44.980Z,986.24
2019-02-06T05:11:44.968Z,986.24
2019-02-06T05:12:44.963Z,986.26
2019-02-06T05:13:44.955Z,986.26
2019-02-06T05:14:44.933Z,986.26
2019-02-06T05:15:44.923Z,986.27
2019-02-06T05:16:44.912Z,986.28
2019-02-06T05:17:44.922Z,986.32
2019-02-06T05:18:44.912Z,986.20
2019-02-06T05:19:44.878Z,986.40
2019-02-06T05:20:44.876Z,986.35
2019-02-06T05:21:44.859Z,986.25
2019-02-06T05:22:44.848Z,986.28
2019-02-06T05:23:44.852Z,986.31
2019-02-06T05:24:44.827Z,986.32
2019-02-06T05:25:44.815Z,986.37
2019-02-06T05:26:44.826Z,986.35
2019-02-06T05:27:44.797Z,986.39
2019-02-06T05:28:44.807Z,986.31
2019-02-06T05:29:44.777Z,986.37
2019-02-06T05:30:44.762Z,986.35
2019-02-06T05:31:44.747Z,986.34
2019-02-06T05:32:44.739Z,986.38
2019-02-06T05:33:44.729Z,986.37
2019-02-06T05:34:44.723Z,986.34
2019-02-06T05:35:44.707Z,986.43
2019-02-06T05:36:44.714Z,986.32
2019-02-06T05:37:44.686Z,986.38
2019-02-06T05:38:44.676Z,986.41
2019-02-06T05:39:44.673Z,986.41
2019-02-06T05:40:44.656Z,986.48
2019-02-06T05:41:44.650Z,986.41
2019-02-06T05:42:44.631Z,986.43
2019-02-06T05:43:44.621Z,986.44
2019-02-06T05:44:44.620Z,986.41
2019-02-06T05:45:44.599Z,986.38
2019-02-06T05:46:44.600Z,986.38
2019-02-06T05:47:44.587Z,986.43
2019-02-06T05:48:44.584Z,986.34
2019-02-06T05:49:44.566Z,986.35
2019-02-06T05:50:44.548Z,986.34
2019-02-06T05:51:44.533Z,986.37
2019-02-06T05:52:44.529Z,986.37
2019-02-06T05:53:44.509Z,986.41
2019-02-06T05:54:44.511Z,986.47
2019-02-06T05:55:44.525Z,986.41
2019-02-06T05:56:44.478Z,986.40
2019-02-06T05:57:44.471Z,986.48
2019-02-06T05:58:44.461Z,986.44
2019-02-06T05:59:44.453Z,986.47
2019-02-06T06:00:44.433Z,986.43
2019-02-06T06:01:44.420Z,986.39
2019-02-06T06:02:44.408Z,986.38
2019-02-06T06:03:44.400Z,986.37
2019-02-06T06:04:44.426Z,986.37
2019-02-06T06:05:44.378Z,986.38
2019-02-06T06:06:44.368Z,986.41
2019-02-06T06:07:45.624Z,986.40
2019-02-06T06:08:44.343Z,986.41
2019-02-06T06:09:44.333Z,986.35
2019-02-06T06:10:44.337Z,986.38
2019-02-06T06:11:44.313Z,986.41
2019-02-06T06:12:44.299Z,986.41
2019-02-06T06:13:44.288Z,986.40
2019-02-06T06:14:44.281Z,986.38
2019-02-06T06:15:44.270Z,986.38
2019-02-06T06:16:44.260Z,986.45
2019-02-06T06:17:44.246Z,986.42
2019-02-06T06:18:44.235Z,986.41
2019-02-06T06:19:44.226Z,986.43
2019-02-06T06:20:44.220Z,986.41
2019-02-06T06:21:44.200Z,986.40
2019-02-06T06:22:44.188Z,986.40
2019-02-06T06:23:44.178Z,986.31
2019-02-06T06:24:44.201Z,986.34
2019-02-06T06:25:44.158Z,986.34
2019-02-06T06:26:44.154Z,986.34
2019-02-06T06:27:44.139Z,986.38
2019-02-06T06:28:44.164Z,986.41
2019-02-06T06:29:44.123Z,986.43
2019-02-06T06:30:47.119Z,986.42
2019-02-06T06:31:44.092Z,986.41
2019-02-06T06:32:44.155Z,986.46
2019-02-06T06:33:44.172Z,986.50
2019-02-06T06:34:44.054Z,986.53
2019-02-06T06:35:44.053Z,986.48
2019-02-06T06:36:44.051Z,986.52
2019-02-06T06:37:44.029Z,986.52
2019-02-06T06:38:45.016Z,986.46
2019-02-06T06:39:44.006Z,986.47
2019-02-06T06:40:44.001Z,986.48
2019-02-06T06:41:43.979Z,986.49
2019-02-06T06:42:43.969Z,986.37
2019-02-06T06:43:43.960Z,986.47
2019-02-06T06:44:43.950Z,986.46
2019-02-06T06:45:43.968Z,986.46
2019-02-06T06:46:43.924Z,986.45
2019-02-06T06:47:43.916Z,986.42
2019-02-06T06:48:43.905Z,986.44
2019-02-06T06:49:43.897Z,986.42
2019-02-06T06:50:43.890Z,986.38
2019-02-06T06:51:43.869Z,986.40
2019-02-06T06:52:43.861Z,986.33
2019-02-06T06:53:43.846Z,986.43
2019-02-06T06:54:43.836Z,986.47
2019-02-06T06:55:43.836Z,986.45
2019-02-06T06:56:43.813Z,986.47
2019-02-06T06:57:43.801Z,986.50
2019-02-06T06:58:43.793Z,986.53
2019-02-06T06:59:43.780Z,986.53
2019-02-06T07:00:43.781Z,986.55
2019-02-06T07:01:43.763Z,986.48
2019-02-06T07:02:43.749Z,986.53
2019-02-06T07:03:43.739Z,986.50
2019-02-06T07:04:43.725Z,986.46
2019-02-06T07:05:43.715Z,986.52
2019-02-06T07:06:46.354Z,986.55
2019-02-06T07:07:43.699Z,986.55
2019-02-06T07:08:43.692Z,986.50
2019-02-06T07:09:43.673Z,986.57
2019-02-06T07:10:43.662Z,986.49
2019-02-06T07:11:43.659Z,986.56
2019-02-06T07:12:43.640Z,986.52
2019-02-06T07:13:43.632Z,986.54
2019-02-06T07:14:43.621Z,986.50
2019-02-06T07:15:43.607Z,986.54
2019-02-06T07:16:43.639Z,986.56
2019-02-06T07:17:43.588Z,986.56
2019-02-06T07:18:43.577Z,986.51
2019-02-06T07:19:43.568Z,986.47
2019-02-06T07:20:43.558Z,986.52
2019-02-06T07:21:43.578Z,986.51
2019-02-06T07:22:43.535Z,986.51
2019-02-06T07:23:43.535Z,986.53
2019-02-06T07:24:43.514Z,986.51
2019-02-06T07:25:43.506Z,986.58
2019-02-06T07:26:43.536Z,986.52
2019-02-06T07:27:43.482Z,986.57
2019-02-06T07:28:43.475Z,986.57
2019-02-06T07:29:43.467Z,986.56
2019-02-06T07:30:43.454Z,986.59
2019-02-06T07:31:43.452Z,986.61
2019-02-06T07:32:43.437Z,986.60
2019-02-06T07:33:43.419Z,986.61
2019-02-06T07:34:43.408Z,986.59
2019-02-06T07:35:43.397Z,986.55
2019-02-06T07:36:43.399Z,986.52
2019-02-06T07:37:43.380Z,986.52
2019-02-06T07:38:43.371Z,986.52
2019-02-06T07:39:43.369Z,986.57
2019-02-06T07:40:43.370Z,986.52
2019-02-06T07:41:43.343Z,986.51
2019-02-06T07:42:43.322Z,986.56
2019-02-06T07:43:43.314Z,986.51
2019-02-06T07:44:43.302Z,986.53
2019-02-06T07:45:43.304Z,986.58
2019-02-06T07:46:43.305Z,986.54
2019-02-06T07:47:43.266Z,986.59
2019-02-06T07:48:43.262Z,986.61
2019-02-06T07:49:43.248Z,986.64
2019-02-06T07:50:43.234Z,986.65
2019-02-06T07:51:43.224Z,986.71
2019-02-06T07:52:43.227Z,986.73
2019-02-06T07:53:43.213Z,986.72
2019-02-06T07:54:43.202Z,986.71
2019-02-06T07:55:43.189Z,986.72
2019-02-06T07:56:43.169Z,986.74
2019-02-06T07:57:43.167Z,986.71
2019-02-06T07:58:43.151Z,986.71
2019-02-06T07:59:43.137Z,986.72
2019-02-06T08:00:43.125Z,986.71
2019-02-06T08:01:43.116Z,986.74
2019-02-06T08:02:43.118Z,986.71
2019-02-06T08:03:43.095Z,986.69
2019-02-06T08:04:43.082Z,986.72
2019-02-06T08:05:43.070Z,986.67
2019-02-06T08:06:43.058Z,986.72
2019-02-06T08:07:43.167Z,986.73
2019-02-06T08:08:43.043Z,986.75
2019-02-06T08:09:43.030Z,986.76
2019-02-06T08:10:43.014Z,986.80
2019-02-06T08:11:43.015Z,986.77
2019-02-06T08:12:43.000Z,986.77
2019-02-06T08:13:42.991Z,986.80
2019-02-06T08:14:42.970Z,986.81
2019-02-06T08:15:42.959Z,986.74
2019-02-06T08:16:42.961Z,986.76
2019-02-06T08:17:42.943Z,986.73
2019-02-06T08:18:42.936Z,986.74
2019-02-06T08:19:42.913Z,986.71
2019-02-06T08:20:42.902Z,986.71
2019-02-06T08:21:42.890Z,986.79
2019-02-06T08:22:42.901Z,986.74
2019-02-06T08:23:42.881Z,986.73
2019-02-06T08:24:42.862Z,986.74
2019-02-06T08:25:42.844Z,986.74
2019-02-06T08:26:42.833Z,986.78
2019-02-06T08:27:42.833Z,986.81
2019-02-06T08:28:42.863Z,986.82
2019-02-06T08:29:42.809Z,986.82
2019-02-06T08:30:42.790Z,986.83
2019-02-06T08:31:42.777Z,986.86
2019-02-06T08:32:42.780Z,986.83
2019-02-06T08:33:42.756Z,986.86
2019-02-06T08:34:42.744Z,986.86
2019-02-06T08:35:42.733Z,986.79
2019-02-06T08:36:42.722Z,986.84
2019-02-06T08:37:42.719Z,986.78
2019-02-06T08:38:47.695Z,986.80
2019-02-06T08:39:43.691Z,986.78
2019-02-06T08:40:42.678Z,986.79
2019-02-06T08:41:42.667Z,986.81
2019-02-06T08:42:42.718Z,986.80
2019-02-06T08:43:42.646Z,986.86
2019-02-06T08:44:42.632Z,986.82
2019-02-06T08:45:42.636Z,986.85
2019-02-06T08:46:42.611Z,986.84
2019-02-06T08:47:42.599Z,986.80
2019-02-06T08:48:42.590Z,986.85
2019-02-06T08:49:42.576Z,986.82
2019-02-06T08:50:42.567Z,986.80
2019-02-06T08:51:42.580Z,986.84
2019-02-06T08:52:42.543Z,986.78
2019-02-06T08:53:42.544Z,986.78
2019-02-06T08:54:42.523Z,986.71
2019-02-06T08:55:42.510Z,986.73
2019-02-06T08:56:42.499Z,986.72
2019-02-06T08:57:42.488Z,986.72
2019-02-06T08:58:42.503Z,986.69
2019-02-06T08:59:42.466Z,986.72
2019-02-06T09:00:42.454Z,986.72
2019-02-06T09:01:42.442Z,986.73
2019-02-06T09:02:42.431Z,986.72
2019-02-06T09:03:42.434Z,986.68
2019-02-06T09:04:42.410Z,986.63
2019-02-06T09:05:42.399Z,986.65
2019-02-06T09:06:42.391Z,986.60
2019-02-06T09:07:42.377Z,986.64
2019-02-06T09:08:42.375Z,986.61
2019-02-06T09:09:43.607Z,986.57
2019-02-06T09:10:42.343Z,986.62
2019-02-06T09:11:42.425Z,986.60
2019-02-06T09:12:42.323Z,986.60
2019-02-06T09:13:42.323Z,986.61
2019-02-06T09:14:42.297Z,986.61
2019-02-06T09:15:42.287Z,986.66
2019-02-06T09:16:42.277Z,986.62
2019-02-06T09:17:42.265Z,986.58
2019-02-06T09:18:42.263Z,986.64
2019-02-06T09:19:42.244Z,986.64
2019-02-06T09:20:42.231Z,986.68
2019-02-06T09:21:42.221Z,986.66
2019-02-06T09:22:42.210Z,986.61
2019-02-06T09:23:42.207Z,986.70
2019-02-06T09:24:42.189Z,986.69
2019-02-06T09:25:42.175Z,986.65
2019-02-06T09:26:42.165Z,986.68
2019-02-06T09:27:42.154Z,986.67
2019-02-06T09:28:42.187Z,986.72
2019-02-06T09:29:42.131Z,986.66
2019-02-06T09:30:42.121Z,986.66
2019-02-06T09:31:42.109Z,986.68
2019-02-06T09:32:42.097Z,986.72
2019-02-06T09:33:42.094Z,986.71
2019-02-06T09:34:42.075Z,986.74
2019-02-06T09:35:42.067Z,986.71
2019-02-06T09:36:42.052Z,986.71
2019-02-06T09:37:42.042Z,986.68
2019-02-06T09:38:42.032Z,986.66
2019-02-06T09:39:42.019Z,986.65
2019-02-06T09:40:42.018Z,986.60
2019-02-06T09:41:41.999Z,986.66
2019-02-06T09:42:42.006Z,986.70
2019-02-06T09:43:41.975Z,986.67
2019-02-06T09:44:41.964Z,986.69
2019-02-06T09:45:41.957Z,986.74
2019-02-06T09:46:41.941Z,986.66
2019-02-06T09:47:41.934Z,986.73
2019-02-06T09:48:41.921Z,986.75
2019-02-06T09:49:41.907Z,986.76
2019-02-06T09:50:41.899Z,986.76
2019-02-06T09:51:41.886Z,986.73
2019-02-06T09:52:41.879Z,986.82
2019-02-06T09:53:41.864Z,986.76
2019-02-06T09:54:41.853Z,986.79
2019-02-06T09:55:41.851Z,986.77
2019-02-06T09:56:41.832Z,986.72
2019-02-06T09:57:41.828Z,986.76
2019-02-06T09:58:41.809Z,986.79
2019-02-06T09:59:41.868Z,986.75
2019-02-06T10:00:41.795Z,986.74
2019-02-06T10:01:41.777Z,986.77
2019-02-06T10:02:41.766Z,986.81
2019-02-06T10:03:41.756Z,986.75
2019-02-06T10:04:41.755Z,986.80
2019-02-06T10:05:41.744Z,986.79
2019-02-06T10:06:41.721Z,986.72
2019-02-06T10:07:41.715Z,986.70
2019-02-06T10:08:41.698Z,986.76
2019-02-06T10:09:41.689Z,986.77
2019-02-06T10:10:41.689Z,986.70
2019-02-06T10:11:41.667Z,986.67
2019-02-06T10:12:41.665Z,986.65
2019-02-06T10:13:41.646Z,986.67
2019-02-06T10:14:41.632Z,986.59
2019-02-06T10:15:41.632Z,986.64
2019-02-06T10:16:41.611Z,986.66
2019-02-06T10:17:41.599Z,986.63
2019-02-06T10:18:41.590Z,986.58
2019-02-06T10:19:42.527Z,986.63
2019-02-06T10:20:41.567Z,986.51
2019-02-06T10:21:41.569Z,986.62
2019-02-06T10:22:41.547Z,986.57
2019-02-06T10:23:41.534Z,986.51
2019-02-06T10:24:41.524Z,986.56
2019-02-06T10:25:41.511Z,986.56
2019-02-06T10:26:41.536Z,986.54
2019-02-06T10:27:41.492Z,986.54
2019-02-06T10:28:41.585Z,986.52
2019-02-06T10:29:41.466Z,986.55
2019-02-06T10:30:41.457Z,986.51
2019-02-06T10:31:41.453Z,986.46
2019-02-06T10:32:41.435Z,986.45
2019-02-06T10:33:41.422Z,986.37
2019-02-06T10:34:41.410Z,986.45
2019-02-06T10:35:41.400Z,986.35
2019-02-06T10:36:41.403Z,986.34
2019-02-06T10:37:41.378Z,986.37
2019-02-06T10:38:41.369Z,986.31
2019-02-06T10:39:41.356Z,986.34
2019-02-06T10:40:41.405Z,986.37
2019-02-06T10:41:41.345Z,986.32
2019-02-06T10:42:41.322Z,986.35
2019-02-06T10:43:41.310Z,986.38
2019-02-06T10:44:41.299Z,986.32
2019-02-06T10:45:41.290Z,986.34
2019-02-06T10:46:41.291Z,986.32
2019-02-06T10:47:41.266Z,986.33
2019-02-06T10:48:43.778Z,986.34
2019-02-06T10:49:41.288Z,986.32
2019-02-06T10:50:41.258Z,986.34
2019-02-06T10:51:41.247Z,986.31
2019-02-06T10:52:41.213Z,986.33
2019-02-06T10:53:41.252Z,986.28
2019-02-06T10:54:41.187Z,986.29
2019-02-06T10:55:41.180Z,986.27
2019-02-06T10:56:41.168Z,986.23
2019-02-06T10:57:41.164Z,986.23
2019-02-06T10:58:41.151Z,986.24
2019-02-06T10:59:41.132Z,986.25
2019-02-06T11:00:41.120Z,986.19
2019-02-06T11:01:41.114Z,986.16
2019-02-06T11:02:41.118Z,986.16
2019-02-06T11:03:41.133Z,986.14
2019-02-06T11:04:41.150Z,986.10
2019-02-06T11:05:41.066Z,986.10
2019-02-06T11:06:41.054Z,986.09
2019-02-06T11:07:41.054Z,986.04
2019-02-06T11:08:41.032Z,986.08
2019-02-06T11:09:46.153Z,986.03
2019-02-06T11:10:42.010Z,986.09
2019-02-06T11:11:41.001Z,986.01
2019-02-06T11:12:41.004Z,986.05
2019-02-06T11:13:40.977Z,986.02
2019-02-06T11:14:40.966Z,985.96
2019-02-06T11:15:40.956Z,986.00
2019-02-06T11:16:40.947Z,985.97
2019-02-06T11:17:40.938Z,985.95
2019-02-06T11:18:40.925Z,985.91
2019-02-06T11:19:42.990Z,985.88
2019-02-06T11:20:40.907Z,985.91
2019-02-06T11:21:40.891Z,985.85
2019-02-06T11:22:40.893Z,985.89
2019-02-06T11:23:40.869Z,985.88
2019-02-06T11:24:40.859Z,985.88
2019-02-06T11:25:40.857Z,985.83
2019-02-06T11:26:40.840Z,985.90
2019-02-06T11:27:40.848Z,985.85
2019-02-06T11:28:40.814Z,985.88
2019-02-06T11:29:40.854Z,985.82
2019-02-06T11:30:40.794Z,985.82
2019-02-06T11:31:40.783Z,985.75
2019-02-06T11:32:40.774Z,985.82
2019-02-06T11:33:40.763Z,985.78
2019-02-06T11:34:40.750Z,985.82
2019-02-06T11:35:40.741Z,985.72
2019-02-06T11:36:40.728Z,985.75
2019-02-06T11:37:40.716Z,985.82
2019-02-06T11:38:40.714Z,985.77
2019-02-06T11:39:40.696Z,985.70
2019-02-06T11:40:40.687Z,985.69
2019-02-06T11:41:40.675Z,985.72
2019-02-06T11:42:40.663Z,985.77
2019-02-06T11:43:40.705Z,985.77
2019-02-06T11:44:40.643Z,985.80
2019-02-06T11:45:40.632Z,985.77
2019-02-06T11:46:40.618Z,985.71
2019-02-06T11:47:40.607Z,985.65
2019-02-06T11:48:43.338Z,985.63
2019-02-06T11:49:40.591Z,985.66
2019-02-06T11:50:40.589Z,985.65
2019-02-06T11:51:40.599Z,985.65
2019-02-06T11:52:40.554Z,985.60
2019-02-06T11:53:40.549Z,985.61
2019-02-06T11:54:40.552Z,985.59
2019-02-06T11:55:40.524Z,985.67
2019-02-06T11:56:40.540Z,985.56
2019-02-06T11:57:40.500Z,985.55
2019-02-06T11:58:40.498Z,985.54
2019-02-06T11:59:40.482Z,985.47
2019-02-06T12:00:40.468Z,985.45
2019-02-06T12:01:40.458Z,985.38
2019-02-06T12:02:40.466Z,985.45
2019-02-06T12:03:40.437Z,985.44
2019-02-06T12:04:40.427Z,985.43
2019-02-06T12:05:40.414Z,985.30
2019-02-06T12:06:40.404Z,985.28
2019-02-06T12:07:40.391Z,985.25
2019-02-06T12:08:40.396Z,985.29
2019-02-06T12:09:40.374Z,985.24
2019-02-06T12:10:40.362Z,985.22
2019-02-06T12:11:40.349Z,985.23
2019-02-06T12:12:40.361Z,985.22
2019-02-06T12:13:40.340Z,985.27
2019-02-06T12:14:40.318Z,985.24
2019-02-06T12:15:40.309Z,985.26
2019-02-06T12:16:40.295Z,985.24
2019-02-06T12:17:40.293Z,985.25
2019-02-06T12:18:40.308Z,985.29
2019-02-06T12:19:40.264Z,985.20
2019-02-06T12:20:40.254Z,985.22
2019-02-06T12:21:40.241Z,985.20
2019-02-06T12:22:40.229Z,985.12
2019-02-06T12:23:40.242Z,985.15
2019-02-06T12:24:40.250Z,985.15
2019-02-06T12:25:40.199Z,985.14
2019-02-06T12:26:40.191Z,985.15
2019-02-06T12:27:40.178Z,985.12
2019-02-06T12:28:40.165Z,985.18